Flight Track Log - Related Links

Times and Time Zones

All times are in EDT time to prevent confusion due to time zone crossing. See the UPS1214 flight status page for this flight to view local times or setup timezone preferences in your user account.

Time Position Orientation Groundspeed Altitude Reporting Facility
EDT Latitude Longitude Course Direction KTS MPH feet Rate Location/Type
04:23AM 38.1550 -85.7210 165° South 151 174 2,100  Level FlightAware
04:24AM 38.1360 -85.7120 160° South 193 222 2,600 1,855 Climbing FlightAware
04:24AM 38.1090 -85.6990 159° South 219 252 3,800 2,700 Climbing FlightAware
04:25AM 38.0780 -85.6860 162° South 239 275 5,300 3,200 Climbing FlightAware
04:25AM 38.0610 -85.6790 162° South 243 280 6,200 2,700 Climbing FlightAware
04:25AM 38.0370 -85.6630 152° Southeast 272 313 7,100 2,700 Climbing FlightAware
04:26AM 38.0280 -85.6390 115° Southeast 277 319 8,000 3,400 Climbing FlightAware
04:26AM 38.0260 -85.6160 96° East 277 319 8,800 2,743 Climbing FlightAware
04:26AM 38.0250 -85.5850 92° East 288 331 9,600 2,700 Climbing FlightAware
04:26AM 38.0310 -85.5490 78° East 304 350 10,600 2,492 Climbing FlightAware
04:27AM 38.0550 -85.4660 70° East 356 410 12,300 2,824 Climbing FlightAware
04:28AM 38.0780 -85.3840 70° East 381 438 14,600 3,600 Climbing FlightAware
04:29AM 38.1040 -85.2980 69° East 395 455 17,100 3,459 Climbing FlightAware
04:29AM 38.1330 -85.2000 69° East 413 475 19,500 3,247 Climbing FlightAware
04:30AM 38.1600 -85.1080 70° East 421 484 21,700 2,894 Climbing FlightAware
04:31AM 38.1910 -85.0000 70° East 441 507 23,600 2,550 Climbing FlightAware
04:31AM 38.2160 -84.9160 69° East 451 519 25,100 2,475 Climbing FlightAware
04:32AM 38.2500 -84.7990 70° East 466 536 26,900 2,333 Climbing FlightAware
04:33AM 38.2830 -84.6850 70° East 478 550 28,600 2,471 Climbing FlightAware
04:33AM 38.3140 -84.5780 70° East 478 550 30,400 2,475 Climbing FlightAware
04:34AM 38.3430 -84.4780 70° East 479 551 31,900 1,579 Climbing FlightAware
04:35AM 38.3840 -84.3350 70° East 483 556 32,900 632 Climbing FlightAware
04:36AM 38.4100 -84.2430 70° East 483 556 32,900 67 Level FlightAware
04:37AM 38.4530 -84.0910 70° East 499 574 33,000 75 Climbing FlightAware
04:37AM 38.4770 -84.0060 70° East 488 562 33,000  Level FlightAware
04:38AM 38.5100 -83.8930 70° East 488 562 33,000  Level FlightAware
04:39AM 38.5420 -83.7780 70° East 488 562 33,000  Level FlightAware
04:39AM 38.5690 -83.6850 70° East 488 562 33,000  Level FlightAware
04:40AM 38.5950 -83.5930 70° East 488 562 33,000  Level FlightAware
04:41AM 38.6210 -83.5010 70° East 488 562 33,000  Level FlightAware
04:41AM 38.6470 -83.4080 70° East 488 562 33,000  Level FlightAware
04:42AM 38.6740 -83.3160 69° East 488 562 33,000  Level FlightAware
04:43AM 38.7060 -83.2010 70° East 488 562 33,000  Level FlightAware
04:43AM 38.7630 -82.9740 72° East 476 548 33,000  Level FlightAware
04:44AM 38.7960 -82.8530 71° East 477 549 33,000  Level FlightAware
04:45AM 38.8350 -82.7080 71° East 478 550 33,000  Level FlightAware
04:46AM 38.8630 -82.6040 71° East 479 551 33,000  Level FlightAware
04:47AM 38.8950 -82.4820 71° East 479 551 33,000  Level FlightAware
04:47AM 38.9180 -82.3940 71° East 478 550 33,000  Level FlightAware
04:48AM 38.9510 -82.2700 71° East 479 551 33,000  Level FlightAware
04:49AM 38.9960 -82.1020 71° East 479 551 33,000  Level FlightAware
04:50AM 39.0230 -81.9980 71° East 478 550 33,000  Level FlightAware
04:50AM 39.0500 -81.8940 71° East 478 550 33,000  Level FlightAware
04:51AM 39.0820 -81.7690 72° East 478 550 33,000  Level FlightAware
04:52AM 39.1100 -81.6610 71° East 478 550 33,000  Level FlightAware
04:52AM 39.1380 -81.5520 72° East 477 549 33,000  Level FlightAware
04:53AM 39.1700 -81.4280 72° East 477 549 33,000  Level FlightAware
04:54AM 39.1970 -81.3220 72° East 478 550 33,000  Level FlightAware
04:54AM 39.2250 -81.2080 72° East 478 550 33,000  Level FlightAware
04:55AM 39.2520 -81.1030 72° East 478 550 33,000  Level FlightAware
04:56AM 39.2810 -80.9880 72° East 477 549 33,000  Level FlightAware
04:57AM 39.3070 -80.8590 75° East 477 549 33,000  Level FlightAware
04:57AM 39.3140 -80.7460 85° East 475 547 33,000  Level FlightAware
04:58AM 39.3200 -80.6360 86° East 475 547 33,000  Level FlightAware
04:59AM 39.3250 -80.4800 88° East 475 547 33,000  Level FlightAware
04:59AM 39.3328 -80.3842 88° East 466 536 33,000  Level Washington Center
05:00AM 39.3303 -80.3033 92° East 475 547 33,000  Level Indianapolis Center
05:01AM 39.3394 -80.2156 82° East 461 531 33,000  Level Washington Center
05:01AM 39.3439 -80.0414 88° East 461 531 33,000  Level Washington Center
05:02AM 39.3478 -79.8750 88° East 466 536 33,000  Level Washington Center
05:03AM 39.3517 -79.7036 88° East 466 536 33,000  Level Washington Center
05:04AM 39.3575 -79.5347 87° East 466 536 33,000 -1,137 Level Washington Center
05:11AM 39.3770 -78.4480 87° East 456 525 24,700 -1,447 Descending FlightAware
05:12AM 39.3790 -78.3290 89° East 446 513 22,800 -2,541 Descending FlightAware
05:12AM 39.3810 -78.2190 89° East 437 503 21,100 -2,625 Descending FlightAware
05:13AM 39.3820 -78.1180 89° East 427 491 19,300 -2,700 Descending FlightAware
05:14AM 39.3850 -78.0170 88° East 421 484 17,500 -2,259 Descending FlightAware
05:14AM 39.3950 -77.9040 83° East 411 473 16,100 -1,906 Descending FlightAware
05:15AM 39.4060 -77.8090 81° East 401 461 14,800 -2,250 Descending FlightAware
05:16AM 39.4170 -77.7150 81° East 392 451 13,100 -2,259 Descending FlightAware
05:16AM 39.4280 -77.6130 82° East 374 430 11,600 -1,800 Descending FlightAware
05:17AM 39.4350 -77.5500 82° East 372 428 10,700 -988 Descending FlightAware
05:18AM 39.4470 -77.4400 82° East 370 426 10,200 -640 Descending FlightAware
05:18AM 39.4520 -77.3880 83° East 345 397 9,900 -750 Descending FlightAware
05:18AM 39.4550 -77.3600 82° East 334 384 9,700 -533 Descending FlightAware
05:19AM 39.4600 -77.3020 84° East 299 344 9,500 -1,100 Descending FlightAware
05:19AM 39.4540 -77.2470 98° East 263 303 8,600 -1,745 Descending FlightAware
05:20AM 39.4460 -77.2100 106° East 266 306 7,900 -1,636 Descending FlightAware
05:20AM 39.4340 -77.1640 109° East 265 305 7,100 -1,418 Descending FlightAware
05:21AM 39.4260 -77.1310 107° East 260 299 6,600 -1,309 Descending FlightAware
05:21AM 39.4170 -77.0900 106° East 258 297 5,900 -1,418 Descending FlightAware
05:22AM 39.4070 -77.0530 109° East 255 293 5,300 -1,418 Descending FlightAware
05:22AM 39.3970 -77.0090 106° East 249 287 4,600 -1,418 Descending FlightAware
05:23AM 39.3880 -76.9740 108° East 244 281 4,000 -1,440 Descending FlightAware
05:23AM 39.3790 -76.9370 107° East 242 278 3,400 -1,100 Descending FlightAware
05:24AM 39.3690 -76.8970 108° East 229 264 2,900 -738 Descending FlightAware
05:24AM 39.3590 -76.8580 108° East 204 235 2,600 -257 Descending FlightAware
05:25AM 39.3390 -76.8240 127° Southeast 166 191 2,600 92 Level FlightAware
05:25AM 39.3220 -76.8080 144° Southeast 166 191 2,700  Climbing FlightAware
05:26AM 39.3060 -76.7930 144° Southeast 144 166 2,600 -120 Descending FlightAware
05:26AM 39.2960 -76.7840 145° Southeast 147 169 2,600 -554 Level FlightAware
05:27AM 39.2710 -76.7620 146° Southeast 143 165 2,000 -831 Descending FlightAware
05:27AM 39.2600 -76.7520 145° Southeast 140 161 1,700 -480 Descending FlightAware
05:28AM 39.2470 -76.7390 142° Southeast 133 153 1,600 -391 Descending FlightAware
05:28AM 39.2333 -76.7333 142° Southeast 130 150 1,400 -711 Descending Potomac TRACON
05:29AM 39.2000 -76.7000 142° Southeast 131 151 700 -700 Descending Potomac TRACON
05:31AM 39.1754 -76.6683 142° Southeast  Level Estimated
05:38AM 39.1754 -76.6683 142° Southeast  Level Estimated
05:39AM 39.1754 -76.6683 142° Southeast  Level Estimated
05:40AM 39.1754 -76.6683 142° Southeast  Level Estimated
05:41AM 39.1754 -76.6683 142° Southeast  Level Estimated
05:42AM 39.1754 -76.6683 142° Southeast  Level Estimated

Login

Don't have an account? Register now (free) for customized features, flight alerts, and more!